sensor_id;sensor_type;location;lat;lon;timestamp;temperature;humidity
26503;DHT22;14177;51.520;6.764;2023-08-06T00:02:06;16.40;99.90
26503;DHT22;14177;51.520;6.764;2023-08-06T00:04:33;16.40;99.90
26503;DHT22;14177;51.520;6.764;2023-08-06T00:07:00;16.40;99.90
26503;DHT22;14177;51.520;6.764;2023-08-06T00:09:27;16.40;99.90
26503;DHT22;14177;51.520;6.764;2023-08-06T00:11:54;16.30;99.90
26503;DHT22;14177;51.520;6.764;2023-08-06T00:14:21;16.30;99.90
26503;DHT22;14177;51.520;6.764;2023-08-06T00:16:48;16.30;99.90
26503;DHT22;14177;51.520;6.764;2023-08-06T00:19:15;16.20;99.90
26503;DHT22;14177;51.520;6.764;2023-08-06T00:21:42;16.20;99.90
26503;DHT22;14177;51.520;6.764;2023-08-06T00:24:08;16.20;99.90
26503;DHT22;14177;51.520;6.764;2023-08-06T00:26:35;16.20;99.90
26503;DHT22;14177;51.520;6.764;2023-08-06T00:29:02;16.20;99.90
26503;DHT22;14177;51.520;6.764;2023-08-06T00:31:30;16.20;99.90
26503;DHT22;14177;51.520;6.764;2023-08-06T00:33:56;16.20;99.90
26503;DHT22;14177;51.520;6.764;2023-08-06T00:36:23;16.20;99.90
26503;DHT22;14177;51.520;6.764;2023-08-06T00:38:50;16.20;99.90
26503;DHT22;14177;51.520;6.764;2023-08-06T00:41:17;16.20;99.90
26503;DHT22;14177;51.520;6.764;2023-08-06T00:43:44;16.20;99.90
26503;DHT22;14177;51.520;6.764;2023-08-06T00:46:11;16.10;99.90
26503;DHT22;14177;51.520;6.764;2023-08-06T00:48:39;16.20;99.90
26503;DHT22;14177;51.520;6.764;2023-08-06T00:51:10;16.20;99.90
26503;DHT22;14177;51.520;6.764;2023-08-06T00:53:38;16.20;99.90
26503;DHT22;14177;51.520;6.764;2023-08-06T00:56:07;16.20;99.90
26503;DHT22;14177;51.520;6.764;2023-08-06T00:58:36;16.20;99.90
26503;DHT22;14177;51.520;6.764;2023-08-06T01:01:04;16.20;99.90
26503;DHT22;14177;51.520;6.764;2023-08-06T01:03:32;16.20;99.90
26503;DHT22;14177;51.520;6.764;2023-08-06T01:06:00;16.20;99.90
26503;DHT22;14177;51.520;6.764;2023-08-06T01:08:48;16.20;99.90
26503;DHT22;14177;51.520;6.764;2023-08-06T01:11:38;16.20;99.90
26503;DHT22;14177;51.520;6.764;2023-08-06T01:17:12;16.10;99.90
26503;DHT22;14177;51.520;6.764;2023-08-06T01:19:40;16.10;99.90
26503;DHT22;14177;51.520;6.764;2023-08-06T01:22:07;16.10;99.90
26503;DHT22;14177;51.520;6.764;2023-08-06T01:24:34;16.10;99.90
26503;DHT22;14177;51.520;6.764;2023-08-06T01:30:17;16.10;99.90
26503;DHT22;14177;51.520;6.764;2023-08-06T01:32:53;16.10;99.90
26503;DHT22;14177;51.520;6.764;2023-08-06T01:35:27;16.10;99.90
26503;DHT22;14177;51.520;6.764;2023-08-06T01:37:59;16.10;99.90
26503;DHT22;14177;51.520;6.764;2023-08-06T01:40:29;16.10;99.90
26503;DHT22;14177;51.520;6.764;2023-08-06T01:42:56;16.10;99.90
26503;DHT22;14177;51.520;6.764;2023-08-06T01:45:23;16.10;99.90
26503;DHT22;14177;51.520;6.764;2023-08-06T01:47:50;16.10;99.90
26503;DHT22;14177;51.520;6.764;2023-08-06T01:50:17;16.10;99.90
26503;DHT22;14177;51.520;6.764;2023-08-06T01:52:44;16.10;99.90
26503;DHT22;14177;51.520;6.764;2023-08-06T01:55:11;16.10;99.90
26503;DHT22;14177;51.520;6.764;2023-08-06T01:57:38;16.10;99.90
26503;DHT22;14177;51.520;6.764;2023-08-06T02:00:05;16.10;99.90
26503;DHT22;14177;51.520;6.764;2023-08-06T02:02:38;16.10;99.90
26503;DHT22;14177;51.520;6.764;2023-08-06T02:05:09;16.10;99.90
26503;DHT22;14177;51.520;6.764;2023-08-06T02:07:36;16.10;99.90
26503;DHT22;14177;51.520;6.764;2023-08-06T02:10:05;16.10;99.90
26503;DHT22;14177;51.520;6.764;2023-08-06T02:12:33;16.10;99.90
26503;DHT22;14177;51.520;6.764;2023-08-06T02:15:00;16.10;99.90
26503;DHT22;14177;51.520;6.764;2023-08-06T02:17:27;16.00;99.90
26503;DHT22;14177;51.520;6.764;2023-08-06T02:19:54;16.10;99.90
26503;DHT22;14177;51.520;6.764;2023-08-06T02:22:21;16.00;99.90
26503;DHT22;14177;51.520;6.764;2023-08-06T02:24:49;16.00;99.90
26503;DHT22;14177;51.520;6.764;2023-08-06T02:27:16;16.00;99.90
26503;DHT22;14177;51.520;6.764;2023-08-06T02:29:43;16.00;99.90
26503;DHT22;14177;51.520;6.764;2023-08-06T02:32:11;16.00;99.90
26503;DHT22;14177;51.520;6.764;2023-08-06T02:34:38;16.00;99.90
26503;DHT22;14177;51.520;6.764;2023-08-06T02:37:05;16.00;99.90
26503;DHT22;14177;51.520;6.764;2023-08-06T02:39:32;16.00;99.90
26503;DHT22;14177;51.520;6.764;2023-08-06T02:42:00;16.00;99.90
26503;DHT22;14177;51.520;6.764;2023-08-06T02:44:30;15.90;99.90
26503;DHT22;14177;51.520;6.764;2023-08-06T02:46:57;15.90;99.90
26503;DHT22;14177;51.520;6.764;2023-08-06T02:49:24;15.90;99.90
26503;DHT22;14177;51.520;6.764;2023-08-06T02:51:52;15.90;99.90
26503;DHT22;14177;51.520;6.764;2023-08-06T02:54:20;15.90;99.90
26503;DHT22;14177;51.520;6.764;2023-08-06T02:56:47;15.80;99.90
26503;DHT22;14177;51.520;6.764;2023-08-06T02:59:23;15.80;99.90
26503;DHT22;14177;51.520;6.764;2023-08-06T03:02:03;15.80;99.90
26503;DHT22;14177;51.520;6.764;2023-08-06T03:04:49;15.80;99.90
26503;DHT22;14177;51.520;6.764;2023-08-06T03:07:18;15.80;99.90
26503;DHT22;14177;51.520;6.764;2023-08-06T03:09:52;15.80;99.90
26503;DHT22;14177;51.520;6.764;2023-08-06T03:12:20;15.80;99.90
26503;DHT22;14177;51.520;6.764;2023-08-06T03:14:48;15.80;99.90
26503;DHT22;14177;51.520;6.764;2023-08-06T03:17:16;15.70;99.90
26503;DHT22;14177;51.520;6.764;2023-08-06T03:19:43;15.70;99.90
26503;DHT22;14177;51.520;6.764;2023-08-06T03:22:11;15.70;99.90
26503;DHT22;14177;51.520;6.764;2023-08-06T03:24:39;15.70;99.90
26503;DHT22;14177;51.520;6.764;2023-08-06T03:27:07;15.70;99.90
26503;DHT22;14177;51.520;6.764;2023-08-06T03:29:36;15.70;99.90
26503;DHT22;14177;51.520;6.764;2023-08-06T03:32:03;15.70;99.90
26503;DHT22;14177;51.520;6.764;2023-08-06T03:34:30;15.70;99.90
26503;DHT22;14177;51.520;6.764;2023-08-06T03:36:57;15.70;99.90
26503;DHT22;14177;51.520;6.764;2023-08-06T03:39:26;15.70;99.90
26503;DHT22;14177;51.520;6.764;2023-08-06T03:41:53;15.70;99.90
26503;DHT22;14177;51.520;6.764;2023-08-06T03:44:21;15.70;99.90
26503;DHT22;14177;51.520;6.764;2023-08-06T03:46:48;15.80;99.90
26503;DHT22;14177;51.520;6.764;2023-08-06T03:49:15;15.80;99.90
26503;DHT22;14177;51.520;6.764;2023-08-06T03:51:42;15.80;99.90
26503;DHT22;14177;51.520;6.764;2023-08-06T03:54:09;15.70;99.90
26503;DHT22;14177;51.520;6.764;2023-08-06T03:56:36;15.70;99.90
26503;DHT22;14177;51.520;6.764;2023-08-06T03:59:03;15.70;99.90
26503;DHT22;14177;51.520;6.764;2023-08-06T04:01:30;15.70;99.90
26503;DHT22;14177;51.520;6.764;2023-08-06T04:03:57;15.70;99.90
26503;DHT22;14177;51.520;6.764;2023-08-06T04:06:24;15.70;99.90
26503;DHT22;14177;51.520;6.764;2023-08-06T04:08:51;15.70;99.90
26503;DHT22;14177;51.520;6.764;2023-08-06T04:11:18;15.70;99.90
26503;DHT22;14177;51.520;6.764;2023-08-06T04:13:45;15.60;99.90
26503;DHT22;14177;51.520;6.764;2023-08-06T04:16:12;15.60;99.90
26503;DHT22;14177;51.520;6.764;2023-08-06T04:18:41;15.60;99.90
26503;DHT22;14177;51.520;6.764;2023-08-06T04:21:08;15.50;99.90
26503;DHT22;14177;51.520;6.764;2023-08-06T04:23:35;15.50;99.90
26503;DHT22;14177;51.520;6.764;2023-08-06T04:26:05;15.50;99.90
26503;DHT22;14177;51.520;6.764;2023-08-06T04:28:34;15.50;99.90
26503;DHT22;14177;51.520;6.764;2023-08-06T04:31:01;15.50;99.90
26503;DHT22;14177;51.520;6.764;2023-08-06T04:33:31;15.50;99.90
26503;DHT22;14177;51.520;6.764;2023-08-06T04:36:01;15.50;99.90
26503;DHT22;14177;51.520;6.764;2023-08-06T04:38:28;15.40;99.90
26503;DHT22;14177;51.520;6.764;2023-08-06T04:40:57;15.40;99.90
26503;DHT22;14177;51.520;6.764;2023-08-06T04:43:24;15.40;99.90
26503;DHT22;14177;51.520;6.764;2023-08-06T04:45:53;15.50;99.90
26503;DHT22;14177;51.520;6.764;2023-08-06T04:48:22;15.50;99.90
26503;DHT22;14177;51.520;6.764;2023-08-06T04:50:50;15.50;99.90
26503;DHT22;14177;51.520;6.764;2023-08-06T04:53:17;15.60;99.90
26503;DHT22;14177;51.520;6.764;2023-08-06T04:55:44;15.70;99.90
26503;DHT22;14177;51.520;6.764;2023-08-06T04:58:13;15.70;99.90
26503;DHT22;14177;51.520;6.764;2023-08-06T05:00:40;15.70;99.90
26503;DHT22;14177;51.520;6.764;2023-08-06T05:03:07;15.70;99.90
26503;DHT22;14177;51.520;6.764;2023-08-06T05:05:34;15.80;99.90
26503;DHT22;14177;51.520;6.764;2023-08-06T05:08:01;15.80;99.90
26503;DHT22;14177;51.520;6.764;2023-08-06T05:10:28;15.80;99.90
26503;DHT22;14177;51.520;6.764;2023-08-06T05:12:55;15.80;99.90
26503;DHT22;14177;51.520;6.764;2023-08-06T05:15:22;15.90;99.90
26503;DHT22;14177;51.520;6.764;2023-08-06T05:17:49;15.90;99.90
26503;DHT22;14177;51.520;6.764;2023-08-06T05:20:16;16.00;99.90
26503;DHT22;14177;51.520;6.764;2023-08-06T05:22:43;16.00;99.90
26503;DHT22;14177;51.520;6.764;2023-08-06T05:25:13;16.10;99.90
26503;DHT22;14177;51.520;6.764;2023-08-06T05:27:40;16.10;99.90
26503;DHT22;14177;51.520;6.764;2023-08-06T05:30:08;16.20;99.90
26503;DHT22;14177;51.520;6.764;2023-08-06T05:32:35;16.20;99.90
26503;DHT22;14177;51.520;6.764;2023-08-06T05:35:03;16.20;99.90
26503;DHT22;14177;51.520;6.764;2023-08-06T05:37:30;16.20;99.90
26503;DHT22;14177;51.520;6.764;2023-08-06T05:39:57;16.30;99.90
26503;DHT22;14177;51.520;6.764;2023-08-06T05:42:24;16.30;99.90
26503;DHT22;14177;51.520;6.764;2023-08-06T05:44:51;16.30;99.90
26503;DHT22;14177;51.520;6.764;2023-08-06T05:47:18;16.30;99.90
26503;DHT22;14177;51.520;6.764;2023-08-06T05:49:46;16.30;99.90
26503;DHT22;14177;51.520;6.764;2023-08-06T05:52:13;16.30;99.90
26503;DHT22;14177;51.520;6.764;2023-08-06T05:54:40;16.40;99.90
26503;DHT22;14177;51.520;6.764;2023-08-06T05:57:07;16.40;99.90
26503;DHT22;14177;51.520;6.764;2023-08-06T05:59:34;16.50;99.90
26503;DHT22;14177;51.520;6.764;2023-08-06T06:02:01;16.50;99.90
26503;DHT22;14177;51.520;6.764;2023-08-06T06:04:28;16.50;99.90
26503;DHT22;14177;51.520;6.764;2023-08-06T06:06:55;16.50;99.90
26503;DHT22;14177;51.520;6.764;2023-08-06T06:09:22;16.60;99.90
26503;DHT22;14177;51.520;6.764;2023-08-06T06:11:49;16.70;99.90
26503;DHT22;14177;51.520;6.764;2023-08-06T06:14:20;16.70;99.90
26503;DHT22;14177;51.520;6.764;2023-08-06T06:16:47;16.80;99.90
26503;DHT22;14177;51.520;6.764;2023-08-06T06:19:14;16.90;99.90
26503;DHT22;14177;51.520;6.764;2023-08-06T06:21:41;17.00;99.90
26503;DHT22;14177;51.520;6.764;2023-08-06T06:24:08;17.00;99.90
26503;DHT22;14177;51.520;6.764;2023-08-06T06:26:35;17.10;99.90
26503;DHT22;14177;51.520;6.764;2023-08-06T06:29:02;17.10;99.90
26503;DHT22;14177;51.520;6.764;2023-08-06T06:31:31;17.00;99.90
26503;DHT22;14177;51.520;6.764;2023-08-06T06:33:58;16.90;99.90
26503;DHT22;14177;51.520;6.764;2023-08-06T06:36:25;16.90;99.90
26503;DHT22;14177;51.520;6.764;2023-08-06T06:38:52;16.90;99.90
26503;DHT22;14177;51.520;6.764;2023-08-06T06:41:19;17.00;99.90
26503;DHT22;14177;51.520;6.764;2023-08-06T06:43:46;17.10;99.90
26503;DHT22;14177;51.520;6.764;2023-08-06T06:46:13;17.20;99.90
26503;DHT22;14177;51.520;6.764;2023-08-06T06:48:40;17.20;99.90
26503;DHT22;14177;51.520;6.764;2023-08-06T06:51:07;17.30;99.90
26503;DHT22;14177;51.520;6.764;2023-08-06T06:53:34;17.40;99.90
26503;DHT22;14177;51.520;6.764;2023-08-06T06:56:02;17.50;99.90
26503;DHT22;14177;51.520;6.764;2023-08-06T06:58:33;17.60;99.90
26503;DHT22;14177;51.520;6.764;2023-08-06T07:01:00;17.60;99.90
26503;DHT22;14177;51.520;6.764;2023-08-06T07:03:27;17.70;99.90
26503;DHT22;14177;51.520;6.764;2023-08-06T07:05:58;17.70;99.90
26503;DHT22;14177;51.520;6.764;2023-08-06T07:08:26;17.60;99.90
26503;DHT22;14177;51.520;6.764;2023-08-06T07:11:03;17.70;99.90
26503;DHT22;14177;51.520;6.764;2023-08-06T07:13:31;17.80;99.90
26503;DHT22;14177;51.520;6.764;2023-08-06T07:15:59;17.80;99.90
26503;DHT22;14177;51.520;6.764;2023-08-06T07:18:26;18.00;99.90
26503;DHT22;14177;51.520;6.764;2023-08-06T07:20:54;18.10;99.90
26503;DHT22;14177;51.520;6.764;2023-08-06T07:23:24;18.00;99.90
26503;DHT22;14177;51.520;6.764;2023-08-06T07:25:52;18.10;99.90
26503;DHT22;14177;51.520;6.764;2023-08-06T07:28:19;18.20;99.90
26503;DHT22;14177;51.520;6.764;2023-08-06T07:30:47;18.20;99.90
26503;DHT22;14177;51.520;6.764;2023-08-06T07:33:14;18.30;99.90
26503;DHT22;14177;51.520;6.764;2023-08-06T07:35:41;18.40;99.90
26503;DHT22;14177;51.520;6.764;2023-08-06T07:38:09;18.40;99.90
26503;DHT22;14177;51.520;6.764;2023-08-06T07:40:36;18.40;99.90
26503;DHT22;14177;51.520;6.764;2023-08-06T07:43:04;18.20;99.90
26503;DHT22;14177;51.520;6.764;2023-08-06T07:45:35;18.20;99.90
26503;DHT22;14177;51.520;6.764;2023-08-06T07:48:03;18.30;99.90
26503;DHT22;14177;51.520;6.764;2023-08-06T07:50:30;18.40;99.90
26503;DHT22;14177;51.520;6.764;2023-08-06T07:52:58;18.50;99.90
26503;DHT22;14177;51.520;6.764;2023-08-06T07:55:25;18.50;99.90
26503;DHT22;14177;51.520;6.764;2023-08-06T07:57:53;18.50;99.90
26503;DHT22;14177;51.520;6.764;2023-08-06T08:00:20;18.40;99.90
26503;DHT22;14177;51.520;6.764;2023-08-06T08:02:47;18.20;99.90
26503;DHT22;14177;51.520;6.764;2023-08-06T08:05:15;18.20;99.90
26503;DHT22;14177;51.520;6.764;2023-08-06T08:07:42;18.30;99.90
26503;DHT22;14177;51.520;6.764;2023-08-06T08:10:10;18.40;99.90
26503;DHT22;14177;51.520;6.764;2023-08-06T08:12:37;18.50;99.90
26503;DHT22;14177;51.520;6.764;2023-08-06T08:15:05;18.50;99.90
26503;DHT22;14177;51.520;6.764;2023-08-06T08:17:32;18.50;99.90
26503;DHT22;14177;51.520;6.764;2023-08-06T08:20:01;18.60;99.90
26503;DHT22;14177;51.520;6.764;2023-08-06T08:22:28;18.60;99.90
26503;DHT22;14177;51.520;6.764;2023-08-06T08:24:55;18.60;99.90
26503;DHT22;14177;51.520;6.764;2023-08-06T08:27:22;18.70;99.90
26503;DHT22;14177;51.520;6.764;2023-08-06T08:29:49;18.70;99.90
26503;DHT22;14177;51.520;6.764;2023-08-06T08:32:16;18.70;99.90
26503;DHT22;14177;51.520;6.764;2023-08-06T08:34:43;18.70;99.90
26503;DHT22;14177;51.520;6.764;2023-08-06T08:37:10;18.70;99.90
26503;DHT22;14177;51.520;6.764;2023-08-06T08:39:37;18.80;99.90
26503;DHT22;14177;51.520;6.764;2023-08-06T08:42:06;18.90;99.90
26503;DHT22;14177;51.520;6.764;2023-08-06T08:44:34;19.00;99.90
26503;DHT22;14177;51.520;6.764;2023-08-06T08:47:08;19.00;99.90
26503;DHT22;14177;51.520;6.764;2023-08-06T08:49:36;19.10;99.90
26503;DHT22;14177;51.520;6.764;2023-08-06T08:52:04;19.20;99.90
26503;DHT22;14177;51.520;6.764;2023-08-06T08:54:38;19.30;99.90
26503;DHT22;14177;51.520;6.764;2023-08-06T08:57:06;19.20;99.90
26503;DHT22;14177;51.520;6.764;2023-08-06T08:59:34;19.20;99.90
26503;DHT22;14177;51.520;6.764;2023-08-06T09:02:01;19.10;99.90
26503;DHT22;14177;51.520;6.764;2023-08-06T09:04:30;19.10;99.90
26503;DHT22;14177;51.520;6.764;2023-08-06T09:07:04;19.00;99.90
26503;DHT22;14177;51.520;6.764;2023-08-06T09:09:35;19.00;99.90
26503;DHT22;14177;51.520;6.764;2023-08-06T09:12:22;18.90;99.90
26503;DHT22;14177;51.520;6.764;2023-08-06T09:14:49;18.90;99.90
26503;DHT22;14177;51.520;6.764;2023-08-06T09:17:17;18.80;99.90
26503;DHT22;14177;51.520;6.764;2023-08-06T09:19:47;18.80;99.90
26503;DHT22;14177;51.520;6.764;2023-08-06T09:22:15;18.80;99.90
26503;DHT22;14177;51.520;6.764;2023-08-06T09:24:43;18.80;99.90
26503;DHT22;14177;51.520;6.764;2023-08-06T09:27:14;18.90;99.90
26503;DHT22;14177;51.520;6.764;2023-08-06T09:29:43;18.90;99.90
26503;DHT22;14177;51.520;6.764;2023-08-06T09:32:12;19.00;99.90
26503;DHT22;14177;51.520;6.764;2023-08-06T09:34:42;19.10;99.90
26503;DHT22;14177;51.520;6.764;2023-08-06T09:37:10;19.10;99.90
26503;DHT22;14177;51.520;6.764;2023-08-06T09:39:39;19.20;99.90
26503;DHT22;14177;51.520;6.764;2023-08-06T09:42:09;19.20;99.90
26503;DHT22;14177;51.520;6.764;2023-08-06T09:44:36;19.20;99.90
26503;DHT22;14177;51.520;6.764;2023-08-06T09:47:07;19.20;99.90
26503;DHT22;14177;51.520;6.764;2023-08-06T09:52:01;19.10;99.90
26503;DHT22;14177;51.520;6.764;2023-08-06T09:54:28;19.10;99.90
26503;DHT22;14177;51.520;6.764;2023-08-06T09:56:57;19.10;99.90
26503;DHT22;14177;51.520;6.764;2023-08-06T09:59:24;19.20;99.90
26503;DHT22;14177;51.520;6.764;2023-08-06T10:01:52;19.20;99.90
26503;DHT22;14177;51.520;6.764;2023-08-06T10:04:21;19.20;99.90
26503;DHT22;14177;51.520;6.764;2023-08-06T10:06:52;19.20;99.90
26503;DHT22;14177;51.520;6.764;2023-08-06T10:09:20;19.10;99.90
26503;DHT22;14177;51.520;6.764;2023-08-06T10:11:50;19.20;99.90
26503;DHT22;14177;51.520;6.764;2023-08-06T10:14:24;19.20;99.90
26503;DHT22;14177;51.520;6.764;2023-08-06T10:16:54;19.20;99.90
26503;DHT22;14177;51.520;6.764;2023-08-06T10:19:25;19.30;99.90
26503;DHT22;14177;51.520;6.764;2023-08-06T10:22:14;19.40;99.90
26503;DHT22;14177;51.520;6.764;2023-08-06T10:27:32;19.60;99.90
26503;DHT22;14177;51.520;6.764;2023-08-06T10:30:29;19.60;99.90
26503;DHT22;14177;51.520;6.764;2023-08-06T10:33:02;19.60;99.90
26503;DHT22;14177;51.520;6.764;2023-08-06T10:35:37;19.70;99.90
26503;DHT22;14177;51.520;6.764;2023-08-06T10:38:12;19.80;99.90
26503;DHT22;14177;51.520;6.764;2023-08-06T10:40:41;19.80;99.90
26503;DHT22;14177;51.520;6.764;2023-08-06T10:43:29;19.90;99.90
26503;DHT22;14177;51.520;6.764;2023-08-06T10:46:00;20.00;99.90
26503;DHT22;14177;51.520;6.764;2023-08-06T10:48:40;20.00;99.90
26503;DHT22;14177;51.520;6.764;2023-08-06T10:51:09;20.00;99.90
26503;DHT22;14177;51.520;6.764;2023-08-06T10:53:42;20.10;99.90
26503;DHT22;14177;51.520;6.764;2023-08-06T10:56:22;20.10;99.90
26503;DHT22;14177;51.520;6.764;2023-08-06T10:58:54;20.10;99.90
26503;DHT22;14177;51.520;6.764;2023-08-06T11:01:24;19.60;99.90
26503;DHT22;14177;51.520;6.764;2023-08-06T11:03:51;19.30;99.90
26503;DHT22;14177;51.520;6.764;2023-08-06T11:06:21;18.80;99.90
26503;DHT22;14177;51.520;6.764;2023-08-06T11:08:51;18.60;99.90
26503;DHT22;14177;51.520;6.764;2023-08-06T11:11:20;18.20;99.90
26503;DHT22;14177;51.520;6.764;2023-08-06T11:13:50;18.00;99.90
26503;DHT22;14177;51.520;6.764;2023-08-06T11:16:20;17.50;99.90
26503;DHT22;14177;51.520;6.764;2023-08-06T11:18:51;17.40;99.90
26503;DHT22;14177;51.520;6.764;2023-08-06T11:21:20;17.20;99.90
26503;DHT22;14177;51.520;6.764;2023-08-06T11:23:48;17.00;99.90
26503;DHT22;14177;51.520;6.764;2023-08-06T11:26:19;16.80;99.90
26503;DHT22;14177;51.520;6.764;2023-08-06T11:28:47;16.70;99.90
26503;DHT22;14177;51.520;6.764;2023-08-06T11:31:27;16.80;99.90
26503;DHT22;14177;51.520;6.764;2023-08-06T11:33:56;16.70;99.90
26503;DHT22;14177;51.520;6.764;2023-08-06T11:36:36;16.80;99.90
26503;DHT22;14177;51.520;6.764;2023-08-06T11:39:09;16.80;99.90
26503;DHT22;14177;51.520;6.764;2023-08-06T11:41:40;16.70;99.90
26503;DHT22;14177;51.520;6.764;2023-08-06T11:44:22;16.70;99.90
26503;DHT22;14177;51.520;6.764;2023-08-06T11:46:58;16.70;99.90
26503;DHT22;14177;51.520;6.764;2023-08-06T11:49:39;16.70;99.90
26503;DHT22;14177;51.520;6.764;2023-08-06T11:55:09;16.50;99.90
26503;DHT22;14177;51.520;6.764;2023-08-06T11:57:54;16.60;99.90
26503;DHT22;14177;51.520;6.764;2023-08-06T12:00:27;16.60;99.90
26503;DHT22;14177;51.520;6.764;2023-08-06T12:03:27;16.60;99.90
26503;DHT22;14177;51.520;6.764;2023-08-06T12:06:06;16.70;99.90
26503;DHT22;14177;51.520;6.764;2023-08-06T12:08:33;16.70;99.90
26503;DHT22;14177;51.520;6.764;2023-08-06T12:11:01;16.70;99.90
26503;DHT22;14177;51.520;6.764;2023-08-06T12:13:28;16.70;99.90
26503;DHT22;14177;51.520;6.764;2023-08-06T12:15:55;16.70;99.90
26503;DHT22;14177;51.520;6.764;2023-08-06T12:18:24;16.70;99.90
26503;DHT22;14177;51.520;6.764;2023-08-06T12:20:51;16.70;99.90
26503;DHT22;14177;51.520;6.764;2023-08-06T12:23:18;16.80;99.90
26503;DHT22;14177;51.520;6.764;2023-08-06T12:25:45;16.80;99.90
26503;DHT22;14177;51.520;6.764;2023-08-06T12:28:12;16.80;99.90
26503;DHT22;14177;51.520;6.764;2023-08-06T12:30:39;16.80;99.90
26503;DHT22;14177;51.520;6.764;2023-08-06T12:33:10;16.70;99.90
26503;DHT22;14177;51.520;6.764;2023-08-06T12:35:37;16.80;99.90
26503;DHT22;14177;51.520;6.764;2023-08-06T12:38:05;16.90;99.90
26503;DHT22;14177;51.520;6.764;2023-08-06T12:40:32;16.80;99.90
26503;DHT22;14177;51.520;6.764;2023-08-06T12:43:05;16.90;99.90
26503;DHT22;14177;51.520;6.764;2023-08-06T12:45:32;16.90;99.90
26503;DHT22;14177;51.520;6.764;2023-08-06T12:48:00;16.90;99.90
26503;DHT22;14177;51.520;6.764;2023-08-06T12:50:27;17.00;99.90
26503;DHT22;14177;51.520;6.764;2023-08-06T12:52:54;17.10;99.90
26503;DHT22;14177;51.520;6.764;2023-08-06T12:55:21;17.10;99.90
26503;DHT22;14177;51.520;6.764;2023-08-06T12:57:48;17.20;99.90
26503;DHT22;14177;51.520;6.764;2023-08-06T13:00:26;17.20;99.90
26503;DHT22;14177;51.520;6.764;2023-08-06T13:02:53;17.30;99.90
26503;DHT22;14177;51.520;6.764;2023-08-06T13:05:21;17.40;99.90
26503;DHT22;14177;51.520;6.764;2023-08-06T13:07:49;17.50;99.90
26503;DHT22;14177;51.520;6.764;2023-08-06T13:10:16;17.50;99.90
26503;DHT22;14177;51.520;6.764;2023-08-06T13:12:44;17.40;99.90
26503;DHT22;14177;51.520;6.764;2023-08-06T13:15:11;17.50;99.90
26503;DHT22;14177;51.520;6.764;2023-08-06T13:17:38;17.60;99.90
26503;DHT22;14177;51.520;6.764;2023-08-06T13:20:06;17.60;99.90
26503;DHT22;14177;51.520;6.764;2023-08-06T13:22:33;17.60;99.90
26503;DHT22;14177;51.520;6.764;2023-08-06T13:25:00;17.50;99.90
26503;DHT22;14177;51.520;6.764;2023-08-06T13:27:28;17.40;99.90
26503;DHT22;14177;51.520;6.764;2023-08-06T13:29:55;17.50;99.90
26503;DHT22;14177;51.520;6.764;2023-08-06T13:32:22;17.50;99.90
26503;DHT22;14177;51.520;6.764;2023-08-06T13:34:49;17.60;99.90
26503;DHT22;14177;51.520;6.764;2023-08-06T13:37:16;17.40;99.90
26503;DHT22;14177;51.520;6.764;2023-08-06T13:39:43;17.20;99.90
26503;DHT22;14177;51.520;6.764;2023-08-06T13:42:10;17.10;99.90
26503;DHT22;14177;51.520;6.764;2023-08-06T13:44:37;17.20;99.90
26503;DHT22;14177;51.520;6.764;2023-08-06T13:47:04;17.00;99.90
26503;DHT22;14177;51.520;6.764;2023-08-06T13:49:31;17.20;99.90
26503;DHT22;14177;51.520;6.764;2023-08-06T13:51:58;17.30;99.90
26503;DHT22;14177;51.520;6.764;2023-08-06T13:54:45;17.40;99.90
26503;DHT22;14177;51.520;6.764;2023-08-06T13:57:12;17.30;99.90
26503;DHT22;14177;51.520;6.764;2023-08-06T13:59:39;17.20;99.90
26503;DHT22;14177;51.520;6.764;2023-08-06T14:02:07;17.30;99.90
26503;DHT22;14177;51.520;6.764;2023-08-06T14:04:35;17.30;99.90
26503;DHT22;14177;51.520;6.764;2023-08-06T14:07:02;17.30;99.90
26503;DHT22;14177;51.520;6.764;2023-08-06T14:09:29;17.50;99.90
26503;DHT22;14177;51.520;6.764;2023-08-06T14:11:57;17.40;99.90
26503;DHT22;14177;51.520;6.764;2023-08-06T14:14:24;17.50;99.90
26503;DHT22;14177;51.520;6.764;2023-08-06T14:16:53;17.50;99.90
26503;DHT22;14177;51.520;6.764;2023-08-06T14:19:22;17.70;99.90
26503;DHT22;14177;51.520;6.764;2023-08-06T14:21:52;17.80;99.90
26503;DHT22;14177;51.520;6.764;2023-08-06T14:24:19;17.60;99.90
26503;DHT22;14177;51.520;6.764;2023-08-06T14:26:46;17.60;99.90
26503;DHT22;14177;51.520;6.764;2023-08-06T14:29:13;17.70;99.90
26503;DHT22;14177;51.520;6.764;2023-08-06T14:31:41;17.70;99.90
26503;DHT22;14177;51.520;6.764;2023-08-06T14:34:08;17.90;99.90
26503;DHT22;14177;51.520;6.764;2023-08-06T14:36:35;17.90;99.90
26503;DHT22;14177;51.520;6.764;2023-08-06T14:39:02;18.10;99.90
26503;DHT22;14177;51.520;6.764;2023-08-06T14:41:29;18.00;99.90
26503;DHT22;14177;51.520;6.764;2023-08-06T14:43:56;18.00;99.90
26503;DHT22;14177;51.520;6.764;2023-08-06T14:46:23;18.00;99.90
26503;DHT22;14177;51.520;6.764;2023-08-06T14:48:50;18.00;99.90
26503;DHT22;14177;51.520;6.764;2023-08-06T14:51:17;17.90;99.90
26503;DHT22;14177;51.520;6.764;2023-08-06T14:53:47;18.10;99.90
26503;DHT22;14177;51.520;6.764;2023-08-06T14:56:15;17.90;99.90
26503;DHT22;14177;51.520;6.764;2023-08-06T14:58:42;18.10;99.90
26503;DHT22;14177;51.520;6.764;2023-08-06T15:01:09;18.30;99.90
26503;DHT22;14177;51.520;6.764;2023-08-06T15:03:36;18.10;99.90
26503;DHT22;14177;51.520;6.764;2023-08-06T15:06:03;17.80;99.90
26503;DHT22;14177;51.520;6.764;2023-08-06T15:08:30;17.90;99.90
26503;DHT22;14177;51.520;6.764;2023-08-06T15:10:57;17.80;99.90
26503;DHT22;14177;51.520;6.764;2023-08-06T15:13:25;17.80;99.90
26503;DHT22;14177;51.520;6.764;2023-08-06T15:15:52;17.80;99.90
26503;DHT22;14177;51.520;6.764;2023-08-06T15:18:19;17.90;99.90
26503;DHT22;14177;51.520;6.764;2023-08-06T15:20:46;17.90;99.90
26503;DHT22;14177;51.520;6.764;2023-08-06T15:23:13;17.90;99.90
26503;DHT22;14177;51.520;6.764;2023-08-06T15:25:41;18.00;99.90
26503;DHT22;14177;51.520;6.764;2023-08-06T15:28:08;18.10;99.90
26503;DHT22;14177;51.520;6.764;2023-08-06T15:30:36;18.20;99.90
26503;DHT22;14177;51.520;6.764;2023-08-06T15:33:03;18.00;99.90
26503;DHT22;14177;51.520;6.764;2023-08-06T15:35:30;18.10;99.90
26503;DHT22;14177;51.520;6.764;2023-08-06T15:37:57;18.20;99.90
26503;DHT22;14177;51.520;6.764;2023-08-06T15:40:24;18.30;99.90
26503;DHT22;14177;51.520;6.764;2023-08-06T15:42:52;18.10;99.90
26503;DHT22;14177;51.520;6.764;2023-08-06T15:45:19;18.10;99.90
26503;DHT22;14177;51.520;6.764;2023-08-06T15:47:46;18.10;99.90
26503;DHT22;14177;51.520;6.764;2023-08-06T15:50:13;18.00;99.90
26503;DHT22;14177;51.520;6.764;2023-08-06T15:52:40;18.00;99.90
26503;DHT22;14177;51.520;6.764;2023-08-06T15:55:07;17.90;99.90